sensor_id;sensor_type;location;lat;lon;timestamp;P1;durP1;ratioP1;P2;durP2;ratioP2
53873;SDS011;62246;50.938;4.058;2022-12-11T00:00:21;34.97;;;14.93;;
53873;SDS011;62246;50.938;4.058;2022-12-11T00:02:46;37.08;;;15.73;;
53873;SDS011;62246;50.938;4.058;2022-12-11T00:05:12;37.20;;;15.30;;
53873;SDS011;62246;50.938;4.058;2022-12-11T00:07:38;37.75;;;15.25;;
53873;SDS011;62246;50.938;4.058;2022-12-11T00:10:03;33.58;;;14.57;;
53873;SDS011;62246;50.938;4.058;2022-12-11T00:12:30;36.22;;;14.77;;
53873;SDS011;62246;50.938;4.058;2022-12-11T00:14:55;35.80;;;15.40;;
53873;SDS011;62246;50.938;4.058;2022-12-11T00:17:21;35.92;;;15.65;;
53873;SDS011;62246;50.938;4.058;2022-12-11T00:19:46;36.80;;;14.25;;
53873;SDS011;62246;50.938;4.058;2022-12-11T00:22:12;38.40;;;15.52;;
53873;SDS011;62246;50.938;4.058;2022-12-11T00:24:37;35.60;;;15.02;;
53873;SDS011;62246;50.938;4.058;2022-12-11T00:27:03;39.08;;;15.25;;
53873;SDS011;62246;50.938;4.058;2022-12-11T00:29:28;31.90;;;13.52;;
53873;SDS011;62246;50.938;4.058;2022-12-11T00:31:54;32.92;;;13.68;;
53873;SDS011;62246;50.938;4.058;2022-12-11T00:34:19;36.70;;;13.38;;
53873;SDS011;62246;50.938;4.058;2022-12-11T00:36:45;30.88;;;11.48;;
53873;SDS011;62246;50.938;4.058;2022-12-11T00:39:10;38.83;;;14.70;;
53873;SDS011;62246;50.938;4.058;2022-12-11T00:41:36;39.55;;;15.35;;
53873;SDS011;62246;50.938;4.058;2022-12-11T00:44:01;35.22;;;13.77;;
53873;SDS011;62246;50.938;4.058;2022-12-11T00:46:27;36.63;;;13.25;;
53873;SDS011;62246;50.938;4.058;2022-12-11T00:48:52;36.63;;;13.35;;
53873;SDS011;62246;50.938;4.058;2022-12-11T00:51:18;37.80;;;14.65;;
53873;SDS011;62246;50.938;4.058;2022-12-11T00:53:43;35.05;;;13.50;;
53873;SDS011;62246;50.938;4.058;2022-12-11T00:56:10;39.42;;;15.02;;
53873;SDS011;62246;50.938;4.058;2022-12-11T00:58:46;42.47;;;15.48;;
53873;SDS011;62246;50.938;4.058;2022-12-11T01:01:14;35.80;;;14.05;;
53873;SDS011;62246;50.938;4.058;2022-12-11T01:03:41;34.70;;;12.70;;
53873;SDS011;62246;50.938;4.058;2022-12-11T01:06:07;38.33;;;14.95;;
53873;SDS011;62246;50.938;4.058;2022-12-11T01:08:36;37.38;;;14.25;;
53873;SDS011;62246;50.938;4.058;2022-12-11T01:11:03;37.05;;;14.65;;
53873;SDS011;62246;50.938;4.058;2022-12-11T01:13:31;37.05;;;13.85;;
53873;SDS011;62246;50.938;4.058;2022-12-11T01:15:56;36.80;;;13.80;;
53873;SDS011;62246;50.938;4.058;2022-12-11T01:18:22;37.72;;;13.07;;
53873;SDS011;62246;50.938;4.058;2022-12-11T01:20:48;39.53;;;14.15;;
53873;SDS011;62246;50.938;4.058;2022-12-11T01:23:13;40.70;;;14.55;;
53873;SDS011;62246;50.938;4.058;2022-12-11T01:25:39;42.90;;;14.48;;
53873;SDS011;62246;50.938;4.058;2022-12-11T01:28:05;36.03;;;13.48;;
53873;SDS011;62246;50.938;4.058;2022-12-11T01:30:31;39.35;;;14.55;;
53873;SDS011;62246;50.938;4.058;2022-12-11T01:32:57;41.90;;;15.02;;
53873;SDS011;62246;50.938;4.058;2022-12-11T01:35:22;37.13;;;14.18;;
53873;SDS011;62246;50.938;4.058;2022-12-11T01:37:48;34.60;;;12.25;;
53873;SDS011;62246;50.938;4.058;2022-12-11T01:40:14;36.65;;;14.27;;
53873;SDS011;62246;50.938;4.058;2022-12-11T01:42:41;36.65;;;14.38;;
53873;SDS011;62246;50.938;4.058;2022-12-11T01:45:18;35.15;;;14.07;;
53873;SDS011;62246;50.938;4.058;2022-12-11T01:47:50;34.70;;;11.27;;
53873;SDS011;62246;50.938;4.058;2022-12-11T01:50:19;35.17;;;12.88;;
53873;SDS011;62246;50.938;4.058;2022-12-11T01:52:45;38.03;;;13.60;;
53873;SDS011;62246;50.938;4.058;2022-12-11T01:55:13;35.47;;;13.95;;
53873;SDS011;62246;50.938;4.058;2022-12-11T01:57:41;34.72;;;14.55;;
53873;SDS011;62246;50.938;4.058;2022-12-11T02:00:09;35.40;;;13.88;;
53873;SDS011;62246;50.938;4.058;2022-12-11T02:02:35;36.60;;;14.57;;
53873;SDS011;62246;50.938;4.058;2022-12-11T02:05:02;34.97;;;13.18;;
53873;SDS011;62246;50.938;4.058;2022-12-11T02:07:29;34.83;;;13.02;;
53873;SDS011;62246;50.938;4.058;2022-12-11T02:10:01;35.50;;;13.77;;
53873;SDS011;62246;50.938;4.058;2022-12-11T02:12:34;35.67;;;14.43;;
53873;SDS011;62246;50.938;4.058;2022-12-11T02:20:43;36.13;;;12.95;;
53873;SDS011;62246;50.938;4.058;2022-12-11T02:26:00;34.97;;;13.18;;
53873;SDS011;62246;50.938;4.058;2022-12-11T02:28:49;36.45;;;13.30;;
53873;SDS011;62246;50.938;4.058;2022-12-11T02:31:26;35.67;;;11.63;;
53873;SDS011;62246;50.938;4.058;2022-12-11T02:36:28;34.97;;;12.60;;
53873;SDS011;62246;50.938;4.058;2022-12-11T02:38:58;38.85;;;14.70;;
53873;SDS011;62246;50.938;4.058;2022-12-11T02:41:29;41.15;;;15.25;;
53873;SDS011;62246;50.938;4.058;2022-12-11T02:43:57;38.00;;;14.57;;
53873;SDS011;62246;50.938;4.058;2022-12-11T02:46:26;39.17;;;14.35;;
53873;SDS011;62246;50.938;4.058;2022-12-11T02:48:53;38.97;;;15.27;;
53873;SDS011;62246;50.938;4.058;2022-12-11T02:51:21;41.65;;;15.13;;
53873;SDS011;62246;50.938;4.058;2022-12-11T02:53:53;36.00;;;14.70;;
53873;SDS011;62246;50.938;4.058;2022-12-11T02:56:26;38.97;;;15.30;;
53873;SDS011;62246;50.938;4.058;2022-12-11T02:59:06;40.83;;;15.90;;
53873;SDS011;62246;50.938;4.058;2022-12-11T03:01:36;40.85;;;15.98;;
53873;SDS011;62246;50.938;4.058;2022-12-11T03:04:02;41.40;;;15.43;;
53873;SDS011;62246;50.938;4.058;2022-12-11T03:06:34;40.58;;;15.55;;
53873;SDS011;62246;50.938;4.058;2022-12-11T03:09:02;41.50;;;15.27;;
53873;SDS011;62246;50.938;4.058;2022-12-11T03:11:29;43.53;;;14.77;;
53873;SDS011;62246;50.938;4.058;2022-12-11T03:13:54;41.08;;;15.38;;
53873;SDS011;62246;50.938;4.058;2022-12-11T03:16:37;40.63;;;14.90;;
53873;SDS011;62246;50.938;4.058;2022-12-11T03:21:58;46.65;;;17.55;;
53873;SDS011;62246;50.938;4.058;2022-12-11T03:25:17;40.58;;;15.57;;
53873;SDS011;62246;50.938;4.058;2022-12-11T03:27:37;46.92;;;17.15;;
53873;SDS011;62246;50.938;4.058;2022-12-11T03:32:38;43.15;;;17.23;;
53873;SDS011;62246;50.938;4.058;2022-12-11T03:35:12;45.42;;;16.77;;
53873;SDS011;62246;50.938;4.058;2022-12-11T03:37:45;39.58;;;17.08;;
53873;SDS011;62246;50.938;4.058;2022-12-11T03:40:15;42.83;;;16.55;;
53873;SDS011;62246;50.938;4.058;2022-12-11T03:42:43;48.80;;;16.67;;
53873;SDS011;62246;50.938;4.058;2022-12-11T03:45:11;47.70;;;17.52;;
53873;SDS011;62246;50.938;4.058;2022-12-11T03:47:38;50.63;;;18.17;;
53873;SDS011;62246;50.938;4.058;2022-12-11T03:50:06;40.65;;;16.45;;
53873;SDS011;62246;50.938;4.058;2022-12-11T03:52:35;43.15;;;17.58;;
53873;SDS011;62246;50.938;4.058;2022-12-11T03:55:03;49.08;;;18.88;;
53873;SDS011;62246;50.938;4.058;2022-12-11T03:57:31;50.88;;;19.30;;
53873;SDS011;62246;50.938;4.058;2022-12-11T04:00:00;44.35;;;17.65;;
53873;SDS011;62246;50.938;4.058;2022-12-11T04:02:28;44.92;;;17.13;;
53873;SDS011;62246;50.938;4.058;2022-12-11T04:04:54;44.85;;;16.95;;
53873;SDS011;62246;50.938;4.058;2022-12-11T04:07:20;45.17;;;17.35;;
53873;SDS011;62246;50.938;4.058;2022-12-11T04:09:45;47.15;;;17.27;;
53873;SDS011;62246;50.938;4.058;2022-12-11T04:12:11;43.38;;;17.08;;
53873;SDS011;62246;50.938;4.058;2022-12-11T04:14:36;44.50;;;17.05;;
53873;SDS011;62246;50.938;4.058;2022-12-11T04:17:20;47.08;;;17.67;;
53873;SDS011;62246;50.938;4.058;2022-12-11T04:20:05;42.22;;;17.13;;
53873;SDS011;62246;50.938;4.058;2022-12-11T04:22:49;43.00;;;17.92;;
53873;SDS011;62246;50.938;4.058;2022-12-11T04:25:33;44.78;;;17.27;;
53873;SDS011;62246;50.938;4.058;2022-12-11T04:27:59;41.60;;;16.95;;
53873;SDS011;62246;50.938;4.058;2022-12-11T04:30:24;44.00;;;17.70;;
53873;SDS011;62246;50.938;4.058;2022-12-11T04:32:50;45.63;;;17.85;;
53873;SDS011;62246;50.938;4.058;2022-12-11T04:35:17;44.67;;;17.80;;
53873;SDS011;62246;50.938;4.058;2022-12-11T04:37:42;44.75;;;16.98;;
53873;SDS011;62246;50.938;4.058;2022-12-11T04:40:09;42.58;;;16.95;;
53873;SDS011;62246;50.938;4.058;2022-12-11T04:42:38;39.70;;;16.15;;
53873;SDS011;62246;50.938;4.058;2022-12-11T04:45:04;48.88;;;17.40;;
53873;SDS011;62246;50.938;4.058;2022-12-11T04:47:30;40.60;;;16.50;;
53873;SDS011;62246;50.938;4.058;2022-12-11T04:49:56;43.90;;;17.23;;
53873;SDS011;62246;50.938;4.058;2022-12-11T04:52:21;41.35;;;16.45;;
53873;SDS011;62246;50.938;4.058;2022-12-11T04:54:47;46.13;;;18.05;;
53873;SDS011;62246;50.938;4.058;2022-12-11T04:57:12;46.45;;;18.20;;
53873;SDS011;62246;50.938;4.058;2022-12-11T04:59:38;44.67;;;18.23;;
53873;SDS011;62246;50.938;4.058;2022-12-11T05:02:03;44.40;;;17.75;;
53873;SDS011;62246;50.938;4.058;2022-12-11T05:04:30;41.30;;;17.38;;
53873;SDS011;62246;50.938;4.058;2022-12-11T05:06:57;43.08;;;18.13;;
53873;SDS011;62246;50.938;4.058;2022-12-11T05:09:22;44.35;;;17.45;;
53873;SDS011;62246;50.938;4.058;2022-12-11T05:11:48;48.55;;;17.85;;
53873;SDS011;62246;50.938;4.058;2022-12-11T05:14:13;48.72;;;18.83;;
53873;SDS011;62246;50.938;4.058;2022-12-11T05:16:39;48.55;;;19.77;;
53873;SDS011;62246;50.938;4.058;2022-12-11T05:19:04;47.72;;;18.33;;
53873;SDS011;62246;50.938;4.058;2022-12-11T05:21:30;46.88;;;18.70;;
53873;SDS011;62246;50.938;4.058;2022-12-11T05:23:55;47.58;;;18.35;;
53873;SDS011;62246;50.938;4.058;2022-12-11T05:26:21;50.20;;;19.00;;
53873;SDS011;62246;50.938;4.058;2022-12-11T05:28:49;52.00;;;20.45;;
53873;SDS011;62246;50.938;4.058;2022-12-11T05:31:18;50.53;;;19.30;;
53873;SDS011;62246;50.938;4.058;2022-12-11T05:33:45;58.70;;;20.83;;
53873;SDS011;62246;50.938;4.058;2022-12-11T05:36:16;50.92;;;20.30;;
53873;SDS011;62246;50.938;4.058;2022-12-11T05:38:42;55.80;;;20.98;;
53873;SDS011;62246;50.938;4.058;2022-12-11T05:41:08;55.10;;;20.38;;
53873;SDS011;62246;50.938;4.058;2022-12-11T05:43:36;57.58;;;21.30;;
53873;SDS011;62246;50.938;4.058;2022-12-11T05:46:06;52.10;;;20.85;;
53873;SDS011;62246;50.938;4.058;2022-12-11T05:48:35;54.67;;;19.90;;
53873;SDS011;62246;50.938;4.058;2022-12-11T05:51:01;50.08;;;18.48;;
53873;SDS011;62246;50.938;4.058;2022-12-11T05:53:28;59.53;;;22.15;;
53873;SDS011;62246;50.938;4.058;2022-12-11T05:55:53;55.10;;;21.52;;
53873;SDS011;62246;50.938;4.058;2022-12-11T05:58:20;65.30;;;22.90;;
53873;SDS011;62246;50.938;4.058;2022-12-11T06:00:46;58.15;;;22.55;;
53873;SDS011;62246;50.938;4.058;2022-12-11T06:03:12;58.60;;;23.15;;
53873;SDS011;62246;50.938;4.058;2022-12-11T06:05:38;57.45;;;20.00;;
53873;SDS011;62246;50.938;4.058;2022-12-11T06:08:04;61.78;;;21.63;;
53873;SDS011;62246;50.938;4.058;2022-12-11T06:10:30;57.38;;;22.20;;
53873;SDS011;62246;50.938;4.058;2022-12-11T06:12:56;61.55;;;22.40;;
53873;SDS011;62246;50.938;4.058;2022-12-11T06:15:22;55.03;;;21.55;;
53873;SDS011;62246;50.938;4.058;2022-12-11T06:17:47;58.35;;;22.95;;
53873;SDS011;62246;50.938;4.058;2022-12-11T06:20:13;57.15;;;21.40;;
53873;SDS011;62246;50.938;4.058;2022-12-11T06:22:38;60.58;;;21.08;;
53873;SDS011;62246;50.938;4.058;2022-12-11T06:25:04;60.67;;;22.77;;
53873;SDS011;62246;50.938;4.058;2022-12-11T06:27:30;56.33;;;21.98;;
53873;SDS011;62246;50.938;4.058;2022-12-11T06:29:55;59.70;;;22.05;;
53873;SDS011;62246;50.938;4.058;2022-12-11T06:32:21;54.90;;;20.95;;
53873;SDS011;62246;50.938;4.058;2022-12-11T06:34:47;65.65;;;23.05;;
53873;SDS011;62246;50.938;4.058;2022-12-11T06:37:12;57.42;;;21.20;;
53873;SDS011;62246;50.938;4.058;2022-12-11T06:39:38;62.58;;;23.10;;
53873;SDS011;62246;50.938;4.058;2022-12-11T06:42:03;64.55;;;23.13;;
53873;SDS011;62246;50.938;4.058;2022-12-11T06:44:29;59.30;;;23.02;;
53873;SDS011;62246;50.938;4.058;2022-12-11T06:46:54;63.88;;;23.15;;
53873;SDS011;62246;50.938;4.058;2022-12-11T06:49:20;56.58;;;22.50;;
53873;SDS011;62246;50.938;4.058;2022-12-11T06:51:46;56.95;;;21.48;;
53873;SDS011;62246;50.938;4.058;2022-12-11T06:54:11;61.70;;;21.98;;
53873;SDS011;62246;50.938;4.058;2022-12-11T06:56:37;58.58;;;21.02;;
53873;SDS011;62246;50.938;4.058;2022-12-11T06:59:02;57.10;;;21.58;;
53873;SDS011;62246;50.938;4.058;2022-12-11T07:01:28;57.75;;;21.17;;
53873;SDS011;62246;50.938;4.058;2022-12-11T07:03:54;57.00;;;19.05;;
53873;SDS011;62246;50.938;4.058;2022-12-11T07:06:21;62.92;;;21.40;;
53873;SDS011;62246;50.938;4.058;2022-12-11T07:08:47;56.50;;;21.55;;
53873;SDS011;62246;50.938;4.058;2022-12-11T07:11:13;59.10;;;22.27;;
53873;SDS011;62246;50.938;4.058;2022-12-11T07:13:40;51.40;;;20.30;;
53873;SDS011;62246;50.938;4.058;2022-12-11T07:16:06;54.17;;;17.60;;
53873;SDS011;62246;50.938;4.058;2022-12-11T07:18:35;54.80;;;19.58;;
53873;SDS011;62246;50.938;4.058;2022-12-11T07:21:05;51.35;;;20.52;;
53873;SDS011;62246;50.938;4.058;2022-12-11T07:23:32;56.20;;;21.05;;
53873;SDS011;62246;50.938;4.058;2022-12-11T07:26:02;55.67;;;21.67;;
53873;SDS011;62246;50.938;4.058;2022-12-11T07:28:35;52.22;;;20.98;;
53873;SDS011;62246;50.938;4.058;2022-12-11T07:31:07;56.72;;;22.00;;
53873;SDS011;62246;50.938;4.058;2022-12-11T07:33:34;52.80;;;20.58;;
53873;SDS011;62246;50.938;4.058;2022-12-11T07:36:00;52.72;;;20.60;;
53873;SDS011;62246;50.938;4.058;2022-12-11T07:38:29;56.85;;;18.65;;
53873;SDS011;62246;50.938;4.058;2022-12-11T07:40:55;51.75;;;20.15;;
53873;SDS011;62246;50.938;4.058;2022-12-11T07:43:25;44.88;;;17.92;;
53873;SDS011;62246;50.938;4.058;2022-12-11T07:45:50;45.95;;;17.52;;
53873;SDS011;62246;50.938;4.058;2022-12-11T07:48:16;47.08;;;18.42;;
53873;SDS011;62246;50.938;4.058;2022-12-11T07:50:41;51.13;;;18.95;;
53873;SDS011;62246;50.938;4.058;2022-12-11T07:53:07;49.28;;;19.05;;
53873;SDS011;62246;50.938;4.058;2022-12-11T07:55:32;52.40;;;17.98;;
53873;SDS011;62246;50.938;4.058;2022-12-11T07:57:57;48.88;;;19.08;;
53873;SDS011;62246;50.938;4.058;2022-12-11T08:00:23;50.20;;;19.33;;
53873;SDS011;62246;50.938;4.058;2022-12-11T08:02:48;50.40;;;19.02;;
53873;SDS011;62246;50.938;4.058;2022-12-11T08:05:14;47.42;;;19.17;;
53873;SDS011;62246;50.938;4.058;2022-12-11T08:07:40;47.83;;;18.67;;
53873;SDS011;62246;50.938;4.058;2022-12-11T08:10:05;48.70;;;18.48;;
53873;SDS011;62246;50.938;4.058;2022-12-11T08:12:31;50.88;;;18.58;;
53873;SDS011;62246;50.938;4.058;2022-12-11T08:14:57;50.58;;;18.98;;
53873;SDS011;62246;50.938;4.058;2022-12-11T08:17:22;52.03;;;19.83;;
53873;SDS011;62246;50.938;4.058;2022-12-11T08:19:48;50.22;;;18.40;;
53873;SDS011;62246;50.938;4.058;2022-12-11T08:22:13;52.17;;;19.83;;
53873;SDS011;62246;50.938;4.058;2022-12-11T08:24:39;45.13;;;17.23;;
53873;SDS011;62246;50.938;4.058;2022-12-11T08:27:05;53.60;;;19.33;;
53873;SDS011;62246;50.938;4.058;2022-12-11T08:29:30;49.38;;;18.17;;
53873;SDS011;62246;50.938;4.058;2022-12-11T08:31:56;46.63;;;17.50;;
53873;SDS011;62246;50.938;4.058;2022-12-11T08:34:22;43.85;;;17.23;;
53873;SDS011;62246;50.938;4.058;2022-12-11T08:36:47;45.40;;;17.25;;
53873;SDS011;62246;50.938;4.058;2022-12-11T08:39:13;42.70;;;17.25;;
53873;SDS011;62246;50.938;4.058;2022-12-11T08:41:39;50.42;;;18.70;;
53873;SDS011;62246;50.938;4.058;2022-12-11T08:44:08;47.00;;;17.60;;
53873;SDS011;62246;50.938;4.058;2022-12-11T08:46:36;51.22;;;18.15;;
53873;SDS011;62246;50.938;4.058;2022-12-11T08:49:02;49.10;;;17.42;;
53873;SDS011;62246;50.938;4.058;2022-12-11T08:51:28;48.72;;;17.65;;
53873;SDS011;62246;50.938;4.058;2022-12-11T08:53:55;45.03;;;17.15;;
53873;SDS011;62246;50.938;4.058;2022-12-11T08:56:22;49.30;;;17.23;;
53873;SDS011;62246;50.938;4.058;2022-12-11T08:58:52;45.40;;;17.08;;
53873;SDS011;62246;50.938;4.058;2022-12-11T09:01:19;43.95;;;17.38;;
53873;SDS011;62246;50.938;4.058;2022-12-11T09:03:46;41.65;;;16.83;;
53873;SDS011;62246;50.938;4.058;2022-12-11T09:06:13;45.45;;;16.17;;
53873;SDS011;62246;50.938;4.058;2022-12-11T09:08:42;44.42;;;16.27;;
53873;SDS011;62246;50.938;4.058;2022-12-11T09:11:13;46.33;;;16.75;;
53873;SDS011;62246;50.938;4.058;2022-12-11T09:16:08;44.85;;;17.30;;
53873;SDS011;62246;50.938;4.058;2022-12-11T09:18:36;43.03;;;16.48;;
53873;SDS011;62246;50.938;4.058;2022-12-11T09:21:04;44.08;;;16.30;;
53873;SDS011;62246;50.938;4.058;2022-12-11T09:23:31;51.58;;;18.58;;
53873;SDS011;62246;50.938;4.058;2022-12-11T09:25:57;47.97;;;18.23;;
53873;SDS011;62246;50.938;4.058;2022-12-11T09:28:23;45.17;;;17.30;;
53873;SDS011;62246;50.938;4.058;2022-12-11T09:30:50;46.75;;;17.67;;
53873;SDS011;62246;50.938;4.058;2022-12-11T09:33:16;51.80;;;18.88;;
53873;SDS011;62246;50.938;4.058;2022-12-11T09:35:41;52.25;;;18.90;;
53873;SDS011;62246;50.938;4.058;2022-12-11T09:38:07;47.92;;;17.05;;
53873;SDS011;62246;50.938;4.058;2022-12-11T09:40:33;52.25;;;19.10;;
53873;SDS011;62246;50.938;4.058;2022-12-11T09:43:47;50.22;;;19.17;;
53873;SDS011;62246;50.938;4.058;2022-12-11T09:46:09;50.00;;;18.00;;
53873;SDS011;62246;50.938;4.058;2022-12-11T09:48:37;53.83;;;18.33;;
53873;SDS011;62246;50.938;4.058;2022-12-11T09:51:09;53.38;;;18.02;;
53873;SDS011;62246;50.938;4.058;2022-12-11T09:53:55;46.47;;;17.02;;
53873;SDS011;62246;50.938;4.058;2022-12-11T09:56:24;54.47;;;17.85;;
53873;SDS011;62246;50.938;4.058;2022-12-11T10:15:34;50.55;;;17.98;;
53873;SDS011;62246;50.938;4.058;2022-12-11T10:18:04;47.13;;;17.83;;
53873;SDS011;62246;50.938;4.058;2022-12-11T10:20:36;41.83;;;16.63;;
53873;SDS011;62246;50.938;4.058;2022-12-11T10:23:07;47.67;;;17.98;;
53873;SDS011;62246;50.938;4.058;2022-12-11T10:25:40;44.00;;;16.92;;
53873;SDS011;62246;50.938;4.058;2022-12-11T10:28:11;40.33;;;14.63;;
53873;SDS011;62246;50.938;4.058;2022-12-11T10:30:39;47.05;;;16.88;;
53873;SDS011;62246;50.938;4.058;2022-12-11T10:33:27;44.97;;;17.58;;
53873;SDS011;62246;50.938;4.058;2022-12-11T10:36:02;41.90;;;15.70;;
53873;SDS011;62246;50.938;4.058;2022-12-11T10:38:41;39.17;;;14.63;;
53873;SDS011;62246;50.938;4.058;2022-12-11T10:41:10;42.38;;;16.33;;
53873;SDS011;62246;50.938;4.058;2022-12-11T10:43:43;41.97;;;15.90;;
53873;SDS011;62246;50.938;4.058;2022-12-11T10:46:21;40.47;;;14.70;;
53873;SDS011;62246;50.938;4.058;2022-12-11T10:51:20;43.92;;;17.02;;
53873;SDS011;62246;50.938;4.058;2022-12-11T10:53:52;42.70;;;16.70;;
53873;SDS011;62246;50.938;4.058;2022-12-11T10:56:26;44.97;;;16.45;;
53873;SDS011;62246;50.938;4.058;2022-12-11T10:58:53;40.03;;;15.00;;
53873;SDS011;62246;50.938;4.058;2022-12-11T11:01:20;39.38;;;14.85;;
53873;SDS011;62246;50.938;4.058;2022-12-11T11:03:59;39.00;;;14.35;;
53873;SDS011;62246;50.938;4.058;2022-12-11T11:06:28;40.20;;;15.85;;
53873;SDS011;62246;50.938;4.058;2022-12-11T11:08:55;41.03;;;16.02;;
53873;SDS011;62246;50.938;4.058;2022-12-11T11:11:24;41.90;;;15.45;;
53873;SDS011;62246;50.938;4.058;2022-12-11T11:13:51;38.97;;;14.63;;
53873;SDS011;62246;50.938;4.058;2022-12-11T11:16:27;38.97;;;14.65;;
53873;SDS011;62246;50.938;4.058;2022-12-11T11:18:53;41.15;;;15.02;;
53873;SDS011;62246;50.938;4.058;2022-12-11T11:21:22;40.13;;;15.25;;
53873;SDS011;62246;50.938;4.058;2022-12-11T11:23:50;41.85;;;15.27;;
53873;SDS011;62246;50.938;4.058;2022-12-11T11:26:17;36.15;;;13.90;;
53873;SDS011;62246;50.938;4.058;2022-12-11T11:28:49;38.25;;;14.88;;
53873;SDS011;62246;50.938;4.058;2022-12-11T11:31:20;40.00;;;15.13;;
53873;SDS011;62246;50.938;4.058;2022-12-11T11:33:56;35.63;;;14.23;;
53873;SDS011;62246;50.938;4.058;2022-12-11T11:36:30;38.80;;;14.55;;
53873;SDS011;62246;50.938;4.058;2022-12-11T11:42:01;37.50;;;12.13;;
53873;SDS011;62246;50.938;4.058;2022-12-11T11:44:44;33.30;;;11.93;;
53873;SDS011;62246;50.938;4.058;2022-12-11T11:47:25;30.40;;;11.30;;
53873;SDS011;62246;50.938;4.058;2022-12-11T11:50:03;32.85;;;11.40;;
53873;SDS011;62246;50.938;4.058;2022-12-11T11:52:52;31.27;;;12.40;;
53873;SDS011;62246;50.938;4.058;2022-12-11T11:58:26;32.65;;;13.25;;
53873;SDS011;62246;50.938;4.058;2022-12-11T12:01:02;35.25;;;13.45;;
53873;SDS011;62246;50.938;4.058;2022-12-11T12:03:27;44.42;;;15.82;;
53873;SDS011;62246;50.938;4.058;2022-12-11T12:16:37;45.33;;;16.00;;
53873;SDS011;62246;50.938;4.058;2022-12-11T12:21:51;36.45;;;14.68;;
53873;SDS011;62246;50.938;4.058;2022-12-11T12:24:24;46.90;;;16.90;;
53873;SDS011;62246;50.938;4.058;2022-12-11T12:27:12;45.85;;;16.77;;
53873;SDS011;62246;50.938;4.058;2022-12-11T12:32:28;41.85;;;15.80;;
53873;SDS011;62246;50.938;4.058;2022-12-11T12:43:20;43.60;;;16.50;;
53873;SDS011;62246;50.938;4.058;2022-12-11T12:45:58;37.13;;;15.80;;
53873;SDS011;62246;50.938;4.058;2022-12-11T12:48:33;40.85;;;15.38;;
53873;SDS011;62246;50.938;4.058;2022-12-11T12:50:59;44.38;;;16.60;;
53873;SDS011;62246;50.938;4.058;2022-12-11T12:53:26;41.47;;;15.73;;
53873;SDS011;62246;50.938;4.058;2022-12-11T12:55:57;41.42;;;15.45;;
53873;SDS011;62246;50.938;4.058;2022-12-11T12:58:24;44.42;;;16.77;;
53873;SDS011;62246;50.938;4.058;2022-12-11T13:01:05;43.80;;;16.37;;
53873;SDS011;62246;50.938;4.058;2022-12-11T13:06:38;43.50;;;17.15;;
53873;SDS011;62246;50.938;4.058;2022-12-11T13:09:20;39.78;;;16.80;;
53873;SDS011;62246;50.938;4.058;2022-12-11T13:11:48;43.20;;;18.02;;
53873;SDS011;62246;50.938;4.058;2022-12-11T13:16:43;39.60;;;15.55;;
53873;SDS011;62246;50.938;4.058;2022-12-11T13:21:58;42.17;;;15.88;;
53873;SDS011;62246;50.938;4.058;2022-12-11T13:24:45;39.97;;;15.52;;
53873;SDS011;62246;50.938;4.058;2022-12-11T13:32:40;38.72;;;15.07;;
53873;SDS011;62246;50.938;4.058;2022-12-11T13:35:12;37.95;;;15.70;;
53873;SDS011;62246;50.938;4.058;2022-12-11T13:37:40;36.47;;;15.18;;
53873;SDS011;62246;50.938;4.058;2022-12-11T13:40:14;38.80;;;15.85;;
53873;SDS011;62246;50.938;4.058;2022-12-11T13:45:20;37.15;;;15.60;;
53873;SDS011;62246;50.938;4.058;2022-12-11T13:47:52;37.10;;;14.73;;
53873;SDS011;62246;50.938;4.058;2022-12-11T13:50:25;29.90;;;13.27;;
53873;SDS011;62246;50.938;4.058;2022-12-11T13:52:54;40.42;;;15.95;;
53873;SDS011;62246;50.938;4.058;2022-12-11T13:55:25;37.00;;;15.48;;
53873;SDS011;62246;50.938;4.058;2022-12-11T13:57:55;36.50;;;15.82;;
53873;SDS011;62246;50.938;4.058;2022-12-11T14:00:23;39.30;;;16.08;;
53873;SDS011;62246;50.938;4.058;2022-12-11T14:02:51;36.17;;;16.60;;
53873;SDS011;62246;50.938;4.058;2022-12-11T14:05:22;40.58;;;16.50;;
53873;SDS011;62246;50.938;4.058;2022-12-11T14:07:49;37.50;;;15.88;;
53873;SDS011;62246;50.938;4.058;2022-12-11T14:10:18;40.30;;;16.92;;
53873;SDS011;62246;50.938;4.058;2022-12-11T14:15:25;39.42;;;16.10;;
53873;SDS011;62246;50.938;4.058;2022-12-11T14:17:52;41.65;;;18.23;;
53873;SDS011;62246;50.938;4.058;2022-12-11T14:20:19;40.08;;;17.13;;
53873;SDS011;62246;50.938;4.058;2022-12-11T14:22:47;39.90;;;16.15;;
53873;SDS011;62246;50.938;4.058;2022-12-11T14:25:23;41.15;;;17.40;;
53873;SDS011;62246;50.938;4.058;2022-12-11T14:27:54;39.70;;;17.08;;
53873;SDS011;62246;50.938;4.058;2022-12-11T14:32:50;38.03;;;15.80;;
53873;SDS011;62246;50.938;4.058;2022-12-11T14:35:53;38.28;;;15.93;;
53873;SDS011;62246;50.938;4.058;2022-12-11T14:40:42;43.15;;;16.75;;
53873;SDS011;62246;50.938;4.058;2022-12-11T14:43:14;41.72;;;16.98;;
53873;SDS011;62246;50.938;4.058;2022-12-11T14:45:47;41.20;;;16.15;;
53873;SDS011;62246;50.938;4.058;2022-12-11T14:48:22;40.17;;;16.65;;
53873;SDS011;62246;50.938;4.058;2022-12-11T14:50:53;37.35;;;16.02;;
53873;SDS011;62246;50.938;4.058;2022-12-11T14:55:50;38.42;;;16.95;;
53873;SDS011;62246;50.938;4.058;2022-12-11T15:00:57;37.47;;;16.05;;
53873;SDS011;62246;50.938;4.058;2022-12-11T15:03:33;44.67;;;18.95;;
53873;SDS011;62246;50.938;4.058;2022-12-11T15:06:20;41.80;;;16.75;;
53873;SDS011;62246;50.938;4.058;2022-12-11T15:08:52;36.88;;;14.85;;
53873;SDS011;62246;50.938;4.058;2022-12-11T15:11:18;35.35;;;13.98;;
53873;SDS011;62246;50.938;4.058;2022-12-11T15:16:21;35.25;;;15.13;;
53873;SDS011;62246;50.938;4.058;2022-12-11T15:18:49;38.53;;;15.00;;
53873;SDS011;62246;50.938;4.058;2022-12-11T15:21:17;33.67;;;14.38;;
53873;SDS011;62246;50.938;4.058;2022-12-11T15:23:52;35.25;;;14.23;;
53873;SDS011;62246;50.938;4.058;2022-12-11T15:26:20;32.58;;;14.63;;
53873;SDS011;62246;50.938;4.058;2022-12-11T15:29:01;30.17;;;13.98;;
53873;SDS011;62246;50.938;4.058;2022-12-11T15:31:29;29.73;;;14.10;;
53873;SDS011;62246;50.938;4.058;2022-12-11T15:33:57;31.17;;;14.00;;
53873;SDS011;62246;50.938;4.058;2022-12-11T15:36:29;32.95;;;14.57;;
53873;SDS011;62246;50.938;4.058;2022-12-11T15:38:59;30.88;;;14.07;;
53873;SDS011;62246;50.938;4.058;2022-12-11T15:41:26;32.97;;;14.38;;
53873;SDS011;62246;50.938;4.058;2022-12-11T15:43:57;29.03;;;12.13;;
53873;SDS011;62246;50.938;4.058;2022-12-11T15:46:26;30.50;;;12.93;;
53873;SDS011;62246;50.938;4.058;2022-12-11T15:48:51;31.25;;;13.68;;
53873;SDS011;62246;50.938;4.058;2022-12-11T15:51:17;31.98;;;14.35;;
53873;SDS011;62246;50.938;4.058;2022-12-11T15:53:43;43.10;;;18.23;;
53873;SDS011;62246;50.938;4.058;2022-12-11T15:56:11;35.78;;;16.08;;
53873;SDS011;62246;50.938;4.058;2022-12-11T15:58:38;39.92;;;17.58;;
53873;SDS011;62246;50.938;4.058;2022-12-11T16:01:03;33.13;;;17.52;;
53873;SDS011;62246;50.938;4.058;2022-12-11T16:03:29;36.55;;;16.52;;
53873;SDS011;62246;50.938;4.058;2022-12-11T16:05:54;35.00;;;15.60;;
53873;SDS011;62246;50.938;4.058;2022-12-11T16:08:21;32.45;;;14.70;;
53873;SDS011;62246;50.938;4.058;2022-12-11T16:10:47;32.83;;;15.10;;